Time;durP1;ratioP1;P1;durP2;ratioP2;P2;SDS_P1;SDS_P2;PMS_P1;PMS_P2;Temp;Humidity;BMP_temperature;BMP_pressure;BME280_temperature;BME280_humidity;BME280_pressure;Samples;Min_cycle;Max_cycle;Signal;HPM_P1;HPM_P2
2022/07/11 00:03:12;;;;;;;8.05;3.00;;;18.10;99.90;;;;;;4870546;29;20045;-81
2022/07/11 00:05:41;;;;;;;4.95;3.13;;;18.00;99.90;;;;;;4924901;29;20026;-80
2022/07/11 00:08:47;;;;;;;7.53;3.47;;;18.10;99.90;;;;;;4931458;29;20038;-80
2022/07/11 00:14:18;;;;;;;4.15;3.00;;;18.00;99.90;;;;;;4926206;29;20430;-80
2022/07/11 00:16:48;;;;;;;8.10;3.83;;;18.00;99.90;;;;;;4916861;29;20059;-80
2022/07/11 00:50:28;;;;;;;10.48;3.58;;;17.10;99.90;;;;;;4872162;29;20088;-83
2022/07/11 00:53:10;;;;;;;10.13;3.67;;;17.30;99.90;;;;;;4857717;29;20550;-81
2022/07/11 00:56:29;;;;;;;8.38;4.00;;;16.90;99.90;;;;;;4858358;29;20423;-81
2022/07/11 00:59:10;;;;;;;5.18;3.95;;;16.80;99.90;;;;;;4925189;29;20496;-80
2022/07/11 01:01:38;;;;;;;9.10;4.10;;;16.70;99.90;;;;;;4918052;29;20107;-80
2022/07/11 01:04:19;;;;;;;7.80;4.65;;;16.60;99.90;;;;;;4935162;29;20035;-83
2022/07/11 01:06:58;;;;;;;7.63;4.40;;;16.50;99.90;;;;;;4918109;29;20034;-84
2022/07/11 01:09:31;;;;;;;9.82;4.80;;;16.70;99.90;;;;;;4936584;29;20047;-80
2022/07/11 01:20:50;;;;;;;11.23;4.68;;;16.20;99.90;;;;;;4956456;29;20043;-84
2022/07/11 01:23:16;;;;;;;10.10;4.60;;;16.10;99.90;;;;;;4940364;29;20031;-78
2022/07/11 01:25:47;;;;;;;7.85;4.88;;;16.50;99.90;;;;;;4928838;29;20066;-79
2022/07/11 01:28:13;;;;;;;13.98;6.15;;;16.40;99.90;;;;;;4937124;29;20027;-80
2022/07/11 01:30:39;;;;;;;11.52;5.75;;;17.20;99.90;;;;;;4953257;29;20024;-80
2022/07/11 01:33:56;;;;;;;10.38;4.88;;;16.50;99.90;;;;;;4956105;29;20027;-80
2022/07/11 01:36:20;;;;;;;11.15;5.38;;;15.70;99.90;;;;;;4944295;29;20071;-79
2022/07/11 01:49:42;;;;;;;;;;;;;;;;;;;;;
2022/07/11 01:52:34;;;;;;;;;;;;;;;;;;;;;
2022/07/11 01:58:16;;;;;;;10.95;6.65;;;16.30;99.90;;;;;;4858803;29;20043;-80
2022/07/11 02:01:08;;;;;;;13.38;6.35;;;15.80;99.90;;;;;;4898200;29;20500;-80
2022/07/11 02:04:21;;;;;;;9.65;6.32;;;15.70;99.90;;;;;;4893733;29;20051;-80
2022/07/11 02:10:30;;;;;;;;;;;;;;;;;;;;;
2022/07/11 02:13:23;;;;;;;12.57;7.40;;;15.90;99.90;;;;;;4895219;29;20527;-80
2022/07/11 02:16:39;;;;;;;;;;;;;;;;;;;;;
2022/07/11 02:23:01;;;;;;;;;;;;;;;;;;;;;
2022/07/11 02:25:27;;;;;;;15.85;7.50;;;14.80;99.90;;;;;;4892321;29;20392;-79
2022/07/11 02:27:53;;;;;;;20.13;8.52;;;15.60;99.90;;;;;;4928695;29;20119;-79
2022/07/11 02:30:18;;;;;;;15.07;7.00;;;15.10;99.90;;;;;;4920598;29;20031;-79
2022/07/11 02:32:44;;;;;;;20.95;8.85;;;15.60;99.90;;;;;;4937298;29;20485;-79
2022/07/11 02:35:10;;;;;;;15.55;8.18;;;15.30;99.90;;;;;;4920380;29;20046;-79
2022/07/11 02:37:35;;;;;;;14.45;7.78;;;15.70;99.90;;;;;;4920084;29;20031;-79
2022/07/11 02:40:01;;;;;;;11.50;7.35;;;15.70;99.90;;;;;;4920065;29;20023;-79
2022/07/11 02:42:26;;;;;;;12.52;6.75;;;16.50;99.90;;;;;;4937251;29;20523;-79
2022/07/11 02:44:52;;;;;;;12.23;7.18;;;15.80;99.90;;;;;;4919865;29;20031;-79
2022/07/11 02:47:18;;;;;;;10.20;6.28;;;16.50;99.90;;;;;;4937060;29;20472;-79
2022/07/11 02:49:43;;;;;;;13.80;6.38;;;16.70;99.90;;;;;;4903996;29;20031;-80
2022/07/11 02:52:10;;;;;;;6.97;5.30;;;16.90;99.90;;;;;;4937221;29;20035;-80
2022/07/11 02:54:40;;;;;;;12.98;6.57;;;16.10;99.90;;;;;;4919905;29;20027;-80
2022/07/11 02:57:55;;;;;;;;;;;;;;;;;;;;;
2022/07/11 03:03:36;;;;;;;9.90;5.57;;;16.40;99.90;;;;;;4877987;29;20059;-80
2022/07/11 03:27:31;;;;;;;11.90;5.47;;;16.50;99.90;;;;;;4765100;29;20412;-81
2022/07/11 03:30:01;;;;;;;9.75;4.97;;;16.50;99.90;;;;;;4744809;30;20043;-80
2022/07/11 03:32:29;;;;;;;8.18;5.00;;;17.10;99.90;;;;;;4776922;29;20043;-80
2022/07/11 03:38:29;;;;;;;15.73;5.30;;;17.70;99.90;;;;;;4821873;29;20045;-80
2022/07/11 03:41:02;;;;;;;6.68;4.80;;;16.90;99.90;;;;;;4836530;29;20030;-80
2022/07/11 03:47:48;;;;;;;7.32;4.95;;;16.60;99.90;;;;;;4924471;29;20038;-80
2022/07/11 03:50:31;;;;;;;10.18;4.63;;;16.60;99.90;;;;;;4891945;29;20044;-79
2022/07/11 03:52:58;;;;;;;10.82;4.75;;;18.00;99.90;;;;;;4867289;29;20041;-78
2022/07/11 03:55:24;;;;;;;9.75;4.53;;;17.20;99.90;;;;;;4880673;29;20119;-78
2022/07/11 03:57:49;;;;;;;9.13;4.65;;;16.70;99.90;;;;;;4895645;29;20063;-78
2022/07/11 04:00:16;;;;;;;9.68;4.18;;;16.90;99.90;;;;;;4895757;29;20128;-79
2022/07/11 04:02:41;;;;;;;8.75;3.70;;;16.90;99.90;;;;;;4895549;29;20039;-78
2022/07/11 04:05:10;;;;;;;6.60;3.55;;;17.10;99.90;;;;;;4878519;29;20040;-79
2022/07/11 04:08:04;;;;;;;11.93;4.20;;;18.00;99.90;;;;;;4895762;29;20028;-81
2022/07/11 04:11:16;;;;;;;7.53;4.15;;;16.80;99.90;;;;;;4830716;29;20118;-87
2022/07/11 04:13:47;;;;;;;5.75;4.40;;;16.80;99.90;;;;;;4894889;29;20056;-80
2022/07/11 04:26:46;;;;;;;4.05;2.75;;;16.90;99.90;;;;;;4934874;29;20131;-78
2022/07/11 04:29:12;;;;;;;7.63;2.72;;;18.00;99.90;;;;;;4918961;29;20102;-79
2022/07/11 04:31:38;;;;;;;5.93;2.50;;;17.20;99.90;;;;;;4935209;29;20023;-79
2022/07/11 04:34:13;;;;;;;;;;;;;;;;;;;;;
2022/07/11 04:36:46;;;;;;;4.30;3.05;;;17.50;99.90;;;;;;4931681;29;20058;-88
2022/07/11 04:39:11;;;;;;;4.55;2.15;;;17.70;99.90;;;;;;4933575;29;20515;-71
2022/07/11 04:41:37;;;;;;;1.88;1.30;;;17.10;99.90;;;;;;4902376;29;20067;-71
2022/07/11 04:44:03;;;;;;;4.22;1.88;;;17.10;99.90;;;;;;4916885;29;20031;-70
2022/07/11 04:46:29;;;;;;;4.40;1.42;;;17.20;99.90;;;;;;4922425;29;20082;-71
2022/07/11 04:48:54;;;;;;;1.80;1.60;;;17.30;99.90;;;;;;4912150;29;20031;-79
2022/07/11 04:51:20;;;;;;;5.78;1.83;;;17.30;99.90;;;;;;4937204;29;20574;-80
2022/07/11 04:53:46;;;;;;;2.25;1.17;;;17.30;99.90;;;;;;4938562;29;20035;-77
2022/07/11 04:56:11;;;;;;;1.90;1.45;;;17.30;99.90;;;;;;4920849;29;20047;-79
2022/07/11 04:58:37;;;;;;;70.78;22.58;;;17.40;99.90;;;;;;4939295;29;20115;-76
2022/07/11 05:01:03;;;;;;;19.00;7.70;;;17.50;99.90;;;;;;4938590;29;20034;-78
2022/07/11 05:03:29;;;;;;;3.00;1.77;;;17.70;99.90;;;;;;4939276;29;20028;-77
2022/07/11 05:05:54;;;;;;;4.35;2.05;;;17.70;99.90;;;;;;4922159;29;20404;-77
2022/07/11 05:08:20;;;;;;;3.55;2.38;;;17.90;99.90;;;;;;4938886;29;20063;-76
2022/07/11 05:10:46;;;;;;;3.25;2.40;;;17.70;99.90;;;;;;4922135;29;20385;-77
2022/07/11 05:13:11;;;;;;;3.88;2.28;;;18.50;99.90;;;;;;4921995;29;20031;-77
2022/07/11 05:15:38;;;;;;;3.92;2.28;;;17.90;99.90;;;;;;4906238;29;20024;-76
2022/07/11 05:18:04;;;;;;;3.78;2.72;;;17.80;99.90;;;;;;4938902;29;20031;-73
2022/07/11 05:20:29;;;;;;;4.38;2.72;;;17.80;99.90;;;;;;4937596;29;20439;-79
2022/07/11 05:22:56;;;;;;;5.05;2.97;;;17.80;99.90;;;;;;4938148;29;20028;-78
2022/07/11 05:25:22;;;;;;;3.70;2.88;;;17.90;99.90;;;;;;4938822;29;20139;-78
2022/07/11 05:28:13;;;;;;;3.95;2.50;;;18.10;99.90;;;;;;4938791;29;20098;-78
2022/07/11 05:30:40;;;;;;;3.45;2.70;;;18.00;99.90;;;;;;4922443;29;20058;-76
2022/07/11 05:33:05;;;;;;;3.22;2.92;;;18.10;99.90;;;;;;4938461;29;20106;-77
2022/07/11 05:35:31;;;;;;;4.53;3.00;;;18.10;99.90;;;;;;4938614;29;20123;-78
2022/07/11 05:37:56;;;;;;;4.22;2.90;;;17.90;99.90;;;;;;4937915;29;20111;-77
2022/07/11 05:40:22;;;;;;;4.78;3.47;;;17.80;99.90;;;;;;4938637;29;20115;-78
2022/07/11 05:42:47;;;;;;;7.45;3.53;;;18.40;99.90;;;;;;4938220;29;20027;-78
2022/07/11 05:45:13;;;;;;;4.38;3.70;;;17.90;99.90;;;;;;4937954;29;20477;-78
2022/07/11 05:47:38;;;;;;;6.47;5.05;;;18.00;99.90;;;;;;4937826;29;20036;-76
2022/07/11 05:50:05;;;;;;;7.72;5.68;;;17.90;99.90;;;;;;4937885;29;20020;-76
2022/07/11 05:52:30;;;;;;;7.03;5.90;;;17.90;99.90;;;;;;4938184;29;20040;-76
2022/07/11 05:54:56;;;;;;;10.25;5.82;;;18.00;99.90;;;;;;4936821;29;20032;-76
2022/07/11 05:57:21;;;;;;;6.68;5.38;;;18.00;99.90;;;;;;4938098;29;20024;-75
2022/07/11 05:59:47;;;;;;;19.90;8.02;;;18.00;99.90;;;;;;4938158;29;20028;-76
2022/07/11 06:02:12;;;;;;;6.35;4.57;;;18.70;99.90;;;;;;4937129;29;20388;-76
2022/07/11 06:04:38;;;;;;;7.15;5.22;;;17.80;99.90;;;;;;4937888;29;20032;-77
2022/07/11 06:07:04;;;;;;;4.35;3.95;;;17.70;99.90;;;;;;4934836;29;20551;-76
2022/07/11 06:09:30;;;;;;;6.13;3.88;;;17.80;99.90;;;;;;4937740;29;20039;-70
2022/07/11 06:11:55;;;;;;;6.18;4.32;;;17.80;99.90;;;;;;4937403;29;20034;-70
2022/07/11 06:14:21;;;;;;;8.35;5.47;;;17.80;99.90;;;;;;4934811;29;20115;-72
2022/07/11 06:16:47;;;;;;;4.75;3.75;;;17.70;99.90;;;;;;4936681;29;20090;-73
2022/07/11 06:19:14;;;;;;;4.75;3.30;;;17.70;99.90;;;;;;4937714;29;20115;-72
2022/07/11 06:21:40;;;;;;;4.25;3.00;;;17.70;99.90;;;;;;4937624;29;20038;-72
2022/07/11 06:24:05;;;;;;;8.15;4.00;;;17.80;99.90;;;;;;4937618;29;20460;-72
2022/07/11 06:26:31;;;;;;;12.20;4.22;;;17.70;99.90;;;;;;4937490;29;20027;-72
2022/07/11 06:28:57;;;;;;;9.40;5.10;;;17.70;99.90;;;;;;4937654;29;20024;-72
2022/07/11 06:31:22;;;;;;;17.17;5.38;;;17.60;99.90;;;;;;4937439;29;20111;-72
2022/07/11 06:33:54;;;;;;;26.27;10.90;;;17.60;99.90;;;;;;4936623;29;20046;-75
2022/07/11 06:36:21;;;;;;;8.20;4.55;;;17.50;99.90;;;;;;4936739;29;20396;-79
2022/07/11 06:39:15;;;;;;;7.68;4.88;;;18.80;99.90;;;;;;4927388;29;20036;-77
2022/07/11 06:41:40;;;;;;;9.40;5.95;;;17.80;99.90;;;;;;4929093;29;20034;-77
2022/07/11 06:44:06;;;;;;;7.97;4.43;;;18.00;99.90;;;;;;4936424;29;20452;-77
2022/07/11 06:46:31;;;;;;;6.55;4.30;;;18.30;99.90;;;;;;4930060;29;20028;-78
2022/07/11 06:48:57;;;;;;;8.88;4.97;;;18.10;99.90;;;;;;4936873;29;20560;-78
2022/07/11 06:51:22;;;;;;;11.13;4.30;;;18.10;99.90;;;;;;4937121;29;20107;-79
2022/07/11 06:53:48;;;;;;;4.57;3.22;;;18.10;99.90;;;;;;4935688;29;20126;-78
2022/07/11 06:56:13;;;;;;;8.70;4.00;;;18.00;99.90;;;;;;4936950;29;20078;-78
2022/07/11 06:58:39;;;;;;;11.15;5.75;;;17.80;99.90;;;;;;4904022;29;20032;-78
2022/07/11 07:01:05;;;;;;;10.55;5.40;;;17.80;99.90;;;;;;4937034;29;20032;-78
2022/07/11 07:03:32;;;;;;;11.30;5.90;;;18.00;99.90;;;;;;4919717;29;20028;-79
2022/07/11 07:05:58;;;;;;;14.05;6.38;;;18.00;99.90;;;;;;4919401;29;20508;-78
2022/07/11 07:08:24;;;;;;;16.00;7.50;;;18.70;99.90;;;;;;4936319;29;20028;-78
2022/07/11 07:10:50;;;;;;;15.10;8.18;;;17.90;99.90;;;;;;4936315;29;20049;-79
2022/07/11 07:13:16;;;;;;;11.23;7.47;;;17.90;99.90;;;;;;4935552;29;20040;-78
2022/07/11 07:15:41;;;;;;;9.85;6.22;;;17.90;99.90;;;;;;4936162;29;20075;-73
2022/07/11 07:18:07;;;;;;;8.52;5.90;;;17.90;99.90;;;;;;4935686;29;20028;-75
2022/07/11 07:20:32;;;;;;;16.38;6.65;;;18.00;99.90;;;;;;4919564;29;20042;-71
2022/07/11 07:22:58;;;;;;;13.75;6.18;;;17.80;99.90;;;;;;4919480;29;20102;-71
2022/07/11 07:25:24;;;;;;;8.85;5.53;;;17.90;99.90;;;;;;4936407;29;20114;-85
2022/07/11 07:27:50;;;;;;;9.48;5.47;;;18.00;99.90;;;;;;4936496;29;20111;-72
2022/07/11 07:30:15;;;;;;;10.27;4.43;;;18.00;99.90;;;;;;4919588;29;20495;-71
2022/07/11 07:32:41;;;;;;;6.55;4.20;;;18.40;99.90;;;;;;4936322;29;20038;-71
2022/07/11 07:35:06;;;;;;;5.30;3.90;;;17.90;99.90;;;;;;4919514;29;20492;-71
2022/07/11 07:37:32;;;;;;;5.78;4.03;;;18.00;99.90;;;;;;4936435;29;20063;-71
2022/07/11 07:39:57;;;;;;;10.98;5.47;;;18.20;99.90;;;;;;4903729;29;20028;-74
2022/07/11 07:42:23;;;;;;;6.20;4.38;;;18.50;99.90;;;;;;4936255;29;20365;-71
2022/07/11 07:44:49;;;;;;;6.82;5.05;;;18.40;99.90;;;;;;4919354;29;20023;-73
2022/07/11 07:47:14;;;;;;;6.85;5.03;;;18.90;99.90;;;;;;4935311;29;20028;-77
2022/07/11 07:49:40;;;;;;;11.95;6.60;;;18.80;99.90;;;;;;4935927;29;20046;-78
2022/07/11 07:52:06;;;;;;;9.45;6.57;;;18.70;99.90;;;;;;4919166;29;20030;-79
2022/07/11 07:54:31;;;;;;;10.32;6.78;;;19.10;99.90;;;;;;4919261;29;20031;-78
2022/07/11 07:56:57;;;;;;;7.72;6.47;;;18.60;99.90;;;;;;4936036;29;20034;-79
2022/07/11 07:59:24;;;;;;;9.07;6.68;;;18.80;99.90;;;;;;4918825;29;20039;-78
2022/07/11 08:01:51;;;;;;;10.23;7.55;;;19.10;99.90;;;;;;4935707;29;20027;-78
2022/07/11 08:04:17;;;;;;;9.63;6.93;;;19.30;99.90;;;;;;4936120;29;20028;-78
2022/07/11 08:06:42;;;;;;;8.50;6.85;;;19.60;99.90;;;;;;4935866;29;20024;-78
2022/07/11 08:09:08;;;;;;;8.55;5.07;;;19.90;99.90;;;;;;4935585;29;20039;-78
2022/07/11 08:11:33;;;;;;;17.33;5.93;;;20.20;99.90;;;;;;4935634;29;20039;-75
2022/07/11 08:13:59;;;;;;;5.32;4.22;;;20.90;99.90;;;;;;4935763;29;20043;-76
2022/07/11 08:16:25;;;;;;;8.00;4.95;;;20.70;99.90;;;;;;4935613;29;20028;-75
2022/07/11 08:18:53;;;;;;;9.27;6.28;;;20.50;99.90;;;;;;4918174;29;20097;-77
2022/07/11 08:21:18;;;;;;;8.15;6.63;;;21.50;99.90;;;;;;4919116;29;20480;-76
2022/07/11 08:23:44;;;;;;;7.40;5.80;;;19.90;99.90;;;;;;4935585;29;20034;-73
2022/07/11 08:26:09;;;;;;;10.48;7.95;;;20.70;99.90;;;;;;4918893;29;20031;-72
2022/07/11 08:28:35;;;;;;;10.70;8.30;;;20.90;99.90;;;;;;4918506;29;20489;-73
2022/07/11 08:31:00;;;;;;;9.38;6.85;;;21.00;99.90;;;;;;4935411;29;20107;-74
2022/07/11 08:33:26;;;;;;;9.57;6.10;;;21.00;99.90;;;;;;4918442;29;20019;-73
2022/07/11 08:35:51;;;;;;;9.95;7.13;;;21.10;99.90;;;;;;4917904;29;20075;-72
2022/07/11 08:38:17;;;;;;;9.55;6.15;;;20.90;99.90;;;;;;4935538;29;20027;-72
2022/07/11 08:40:42;;;;;;;8.48;5.97;;;20.80;99.90;;;;;;4935107;29;20028;-70
2022/07/11 08:43:15;;;;;;;9.63;7.15;;;20.40;99.90;;;;;;4935464;29;20024;-71
2022/07/11 08:45:40;;;;;;;7.28;6.38;;;20.30;99.90;;;;;;4935517;29;20032;-71
2022/07/11 08:48:06;;;;;;;6.68;4.50;;;19.90;99.90;;;;;;4934792;29;20397;-71
2022/07/11 08:50:32;;;;;;;8.50;5.07;;;19.90;99.90;;;;;;4918192;29;20043;-72
2022/07/11 08:52:57;;;;;;;6.20;4.40;;;19.80;99.90;;;;;;4933773;29;20059;-72
2022/07/11 08:55:23;;;;;;;4.72;3.92;;;19.90;99.90;;;;;;4935428;29;20087;-73
2022/07/11 08:57:49;;;;;;;4.47;3.67;;;19.90;99.90;;;;;;4902521;29;20071;-71
2022/07/11 09:00:15;;;;;;;5.35;4.22;;;19.70;99.90;;;;;;4901754;29;20484;-72
2022/07/11 09:02:42;;;;;;;5.22;3.90;;;20.00;99.90;;;;;;4934878;29;20032;-71
2022/07/11 09:05:08;;;;;;;5.03;4.03;;;20.40;99.90;;;;;;4935206;29;20475;-72
2022/07/11 09:07:41;;;;;;;7.00;4.07;;;20.40;99.90;;;;;;4935251;29;20020;-71
2022/07/11 09:10:07;;;;;;;7.63;3.95;;;20.60;99.90;;;;;;4917968;29;20031;-71
2022/07/11 09:12:33;;;;;;;4.43;4.00;;;20.20;99.90;;;;;;4934586;29;20480;-71
2022/07/11 09:14:59;;;;;;;6.65;4.25;;;20.60;99.90;;;;;;4934997;29;20126;-71
2022/07/11 09:17:32;;;;;;;9.23;4.93;;;20.70;99.90;;;;;;4934739;29;20567;-71
2022/07/11 09:19:58;;;;;;;5.18;4.38;;;20.20;99.90;;;;;;4931435;29;20046;-71
2022/07/11 09:27:56;;;;;;;8.68;4.57;;;21.20;99.90;;;;;;4920580;29;20039;-71
2022/07/11 09:30:29;;;;;;;9.55;6.10;;;21.70;99.90;;;;;;4937254;29;20477;-71
2022/07/11 09:32:58;;;;;;;10.30;7.60;;;22.00;99.90;;;;;;4938657;29;20063;-71
2022/07/11 09:35:25;;;;;;;11.88;10.02;;;22.10;99.50;;;;;;4938512;29;20032;-72
2022/07/11 09:37:51;;;;;;;12.63;8.52;;;22.10;99.90;;;;;;4921730;29;20031;-71
2022/07/11 09:40:19;;;;;;;9.68;7.43;;;22.00;99.90;;;;;;4938790;29;20035;-71
2022/07/11 09:42:54;;;;;;;9.15;7.38;;;22.90;99.30;;;;;;4938393;29;20071;-71
2022/07/11 09:45:27;;;;;;;10.88;7.45;;;23.00;98.90;;;;;;4938492;29;20039;-72
2022/07/11 09:47:57;;;;;;;7.55;6.55;;;21.70;99.90;;;;;;4938353;29;20484;-71
2022/07/11 09:50:24;;;;;;;15.45;7.78;;;21.40;99.90;;;;;;4921431;29;20047;-71
2022/07/11 09:53:00;;;;;;;14.27;7.25;;;21.10;99.90;;;;;;4938252;29;20039;-71
2022/07/11 09:55:26;;;;;;;9.02;6.88;;;21.20;99.90;;;;;;4938315;29;20036;-72
2022/07/11 09:57:51;;;;;;;8.82;7.20;;;20.60;99.90;;;;;;4938088;29;20036;-72
2022/07/11 10:00:17;;;;;;;16.40;8.98;;;20.90;99.90;;;;;;4921008;29;20397;-72
2022/07/11 10:02:42;;;;;;;8.77;7.20;;;20.20;99.90;;;;;;4920923;29;20020;-71
2022/07/11 10:05:08;;;;;;;7.72;5.88;;;20.50;99.90;;;;;;4921125;29;20465;-71
2022/07/11 10:07:34;;;;;;;12.60;7.07;;;21.20;99.90;;;;;;4938169;29;20173;-71
2022/07/11 10:10:00;;;;;;;7.80;5.53;;;21.00;99.90;;;;;;4937846;29;20476;-71
2022/07/11 10:12:27;;;;;;;15.27;9.30;;;20.80;99.90;;;;;;4937810;29;20059;-71
2022/07/11 10:14:53;;;;;;;14.18;8.55;;;21.30;99.90;;;;;;4920896;29;20024;-71
2022/07/11 10:17:36;;;;;;;14.32;7.60;;;21.10;99.90;;;;;;4921004;29;20535;-71
2022/07/11 10:20:29;;;;;;;9.50;6.75;;;20.40;99.90;;;;;;4920784;29;20089;-71
2022/07/11 10:23:23;;;;;;;8.38;5.65;;;20.50;99.90;;;;;;4923414;29;20028;-71
2022/07/11 10:25:51;;;;;;;7.45;6.15;;;20.80;99.90;;;;;;4920663;29;20127;-71
2022/07/11 10:28:49;;;;;;;7.00;5.45;;;21.10;99.90;;;;;;4920715;29;20038;-71
2022/07/11 10:31:25;;;;;;;6.63;5.00;;;20.60;99.90;;;;;;4937727;29;20027;-70
2022/07/11 10:34:03;;;;;;;8.00;5.90;;;21.00;99.90;;;;;;4937611;29;20131;-71
2022/07/11 10:36:30;;;;;;;8.43;5.95;;;21.20;99.90;;;;;;4937520;29;20023;-70
2022/07/11 10:39:15;;;;;;;9.75;7.40;;;21.20;99.90;;;;;;4937438;29;20026;-70
2022/07/11 10:41:41;;;;;;;7.65;4.85;;;20.90;99.90;;;;;;4935482;29;20038;-71
2022/07/11 10:44:07;;;;;;;7.53;4.40;;;20.70;99.90;;;;;;4935286;29;20122;-71
2022/07/11 10:46:32;;;;;;;5.50;4.20;;;20.80;99.90;;;;;;4937117;29;20106;-71
2022/07/11 10:49:16;;;;;;;6.75;3.95;;;21.40;99.90;;;;;;4919261;29;20112;-71
2022/07/11 10:51:44;;;;;;;3.60;2.75;;;21.70;99.90;;;;;;4937053;29;20048;-71
2022/07/11 10:54:48;;;;;;;3.38;3.00;;;22.20;99.70;;;;;;4936980;29;20098;-71
2022/07/11 10:57:28;;;;;;;3.72;3.35;;;22.50;99.50;;;;;;4937237;29;20024;-71
2022/07/11 10:59:57;;;;;;;2.35;2.15;;;22.50;99.90;;;;;;4920579;29;20036;-71
2022/07/11 11:02:23;;;;;;;4.68;2.88;;;21.60;99.90;;;;;;4937085;29;20035;-72
2022/07/11 11:04:58;;;;;;;5.03;3.00;;;21.20;99.90;;;;;;4936197;29;20024;-72
2022/07/11 11:07:37;;;;;;;2.92;2.47;;;21.50;99.90;;;;;;4936177;29;20024;-71
2022/07/11 11:10:29;;;;;;;2.70;2.50;;;21.60;99.90;;;;;;4935960;29;20028;-71
2022/07/11 11:13:08;;;;;;;3.40;2.58;;;21.60;99.90;;;;;;4935902;29;20083;-71
2022/07/11 11:15:53;;;;;;;4.63;3.13;;;21.30;99.90;;;;;;4935798;29;20039;-71
2022/07/11 11:18:25;;;;;;;;;;;21.60;99.90;;;;;;4936392;29;20024;-72
2022/07/11 11:21:02;;;;;;;3.58;3.15;;;21.70;99.90;;;;;;4935757;29;19910;-71
2022/07/11 11:23:40;;;;;;;5.18;3.42;;;22.80;99.90;;;;;;4935638;29;20078;-72
2022/07/11 11:26:09;;;;;;;3.05;2.10;;;21.50;99.90;;;;;;4918859;29;20051;-72
2022/07/11 11:28:36;;;;;;;2.45;2.15;;;21.30;99.90;;;;;;4915747;29;20029;-72
2022/07/11 11:31:05;;;;;;;6.38;2.53;;;20.80;99.90;;;;;;4916237;29;20107;-72
2022/07/11 11:33:34;;;;;;;7.50;2.92;;;21.10;99.90;;;;;;4916717;29;20035;-72
2022/07/11 11:36:05;;;;;;;3.35;2.08;;;21.10;99.90;;;;;;4899459;29;20032;-72
2022/07/11 11:38:37;;;;;;;2.95;2.15;;;21.10;99.90;;;;;;4899520;29;20463;-72
2022/07/11 11:41:05;;;;;;;1.33;1.23;;;21.20;99.90;;;;;;4916311;29;20053;-71
2022/07/11 11:43:31;;;;;;;1.73;1.35;;;21.40;99.90;;;;;;4914768;29;20083;-71
2022/07/11 11:45:56;;;;;;;3.08;1.42;;;21.30;99.90;;;;;;4899133;29;20425;-72
2022/07/11 11:48:36;;;;;;;7.63;2.42;;;21.20;99.90;;;;;;4916465;29;20049;-71
2022/07/11 11:51:09;;;;;;;3.25;1.70;;;21.20;99.90;;;;;;4916249;29;20043;-70
2022/07/11 11:53:36;;;;;;;3.03;1.58;;;21.10;99.90;;;;;;4916420;29;20115;-70
2022/07/11 11:56:16;;;;;;;1.48;1.30;;;21.40;99.90;;;;;;4916132;29;20036;-71
2022/07/11 11:58:43;;;;;;;4.25;2.00;;;21.10;99.90;;;;;;4916232;29;20112;-71
2022/07/11 12:01:11;;;;;;;5.47;1.85;;;20.90;99.90;;;;;;4916281;29;20035;-71
2022/07/11 12:04:10;;;;;;;7.85;3.90;;;20.70;99.90;;;;;;4916311;29;20420;-71
2022/07/11 12:06:37;;;;;;;5.50;2.08;;;20.90;99.90;;;;;;4884531;29;20473;-71
2022/07/11 12:09:09;;;;;;;2.92;1.50;;;21.30;99.90;;;;;;4915949;29;20473;-71
2022/07/11 12:11:35;;;;;;;4.90;2.05;;;21.50;99.90;;;;;;4916058;29;20032;-71
2022/07/11 12:14:02;;;;;;;3.85;2.10;;;21.70;99.90;;;;;;4915779;29;20039;-71
2022/07/11 12:16:43;;;;;;;5.95;2.63;;;21.60;99.90;;;;;;4899311;29;20059;-71
2022/07/11 12:19:16;;;;;;;3.67;2.60;;;21.60;99.90;;;;;;4916202;29;20059;-71
2022/07/11 12:21:46;;;;;;;4.28;2.25;;;21.70;99.90;;;;;;4915802;29;20079;-71
2022/07/11 12:24:22;;;;;;;2.70;1.52;;;21.80;99.90;;;;;;4915797;29;20043;-71
2022/07/11 12:26:48;;;;;;;3.30;1.83;;;22.00;99.90;;;;;;4915914;29;20127;-71
2022/07/11 12:29:22;;;;;;;5.25;2.63;;;22.30;99.90;;;;;;4915992;29;20052;-71
2022/07/11 12:31:57;;;;;;;3.92;1.98;;;21.80;99.90;;;;;;4915825;29;20031;-71
2022/07/11 12:34:27;;;;;;;2.58;2.33;;;22.30;99.80;;;;;;4915844;29;20104;-71
2022/07/11 12:37:06;;;;;;;5.00;2.88;;;22.00;99.90;;;;;;4915599;29;20048;-71
2022/07/11 12:39:33;;;;;;;9.18;2.65;;;21.80;99.90;;;;;;4915681;29;20472;-72
2022/07/11 12:41:59;;;;;;;3.35;2.50;;;21.70;99.90;;;;;;4915564;29;20397;-71
2022/07/11 12:47:10;;;;;;;4.40;2.65;;;22.00;99.90;;;;;;4915736;29;20171;-72
2022/07/11 12:49:35;;;;;;;5.22;3.60;;;22.10;99.90;;;;;;4898856;29;20095;-71
2022/07/11 12:52:01;;;;;;;7.43;3.90;;;22.00;99.90;;;;;;4915433;29;20032;-71
2022/07/11 12:54:31;;;;;;;3.30;3.00;;;22.10;99.90;;;;;;4915684;29;20032;-71
2022/07/11 12:56:57;;;;;;;7.90;3.90;;;22.30;99.90;;;;;;4915418;29;20043;-71
2022/07/11 12:59:23;;;;;;;7.53;2.75;;;22.20;99.90;;;;;;4915574;29;20084;-71
2022/07/11 13:02:00;;;;;;;6.13;2.67;;;22.70;99.90;;;;;;4915555;29;20028;-71
2022/07/11 13:04:49;;;;;;;3.78;2.50;;;22.70;99.20;;;;;;4916456;29;20429;-71
2022/07/11 13:10:18;;;;;;;2.20;2.00;;;22.60;99.20;;;;;;4919654;29;20079;-71
2022/07/11 13:12:44;;;;;;;1.50;1.40;;;22.60;99.70;;;;;;4919096;29;20032;-72
2022/07/11 13:15:10;;;;;;;2.95;2.13;;;22.40;99.40;;;;;;4902033;29;20028;-71
2022/07/11 13:17:40;;;;;;;2.63;1.98;;;22.30;99.80;;;;;;4902381;29;20028;-71
2022/07/11 13:20:10;;;;;;;5.13;2.35;;;22.30;99.90;;;;;;4904468;29;20062;-71
2022/07/11 13:22:35;;;;;;;2.83;1.75;;;22.00;99.90;;;;;;4916434;29;20091;-71
2022/07/11 13:25:01;;;;;;;3.08;2.15;;;21.80;99.90;;;;;;4899775;29;20394;-71
2022/07/11 13:27:27;;;;;;;5.00;2.33;;;21.70;99.90;;;;;;4916845;29;20035;-71
2022/07/11 13:29:52;;;;;;;3.22;1.98;;;21.60;99.90;;;;;;4918418;29;20050;-71
2022/07/11 13:32:18;;;;;;;1.90;1.63;;;21.90;99.90;;;;;;4919051;29;20521;-71
2022/07/11 13:34:43;;;;;;;2.30;1.80;;;21.90;99.90;;;;;;4918750;29;20119;-71
2022/07/11 13:37:09;;;;;;;2.08;1.70;;;22.00;99.90;;;;;;4918802;29;20111;-72
2022/07/11 13:39:34;;;;;;;8.25;3.08;;;22.10;99.90;;;;;;4918847;29;20115;-71
2022/07/11 13:42:00;;;;;;;4.60;2.22;;;22.10;99.90;;;;;;4918579;29;20036;-71
2022/07/11 13:44:25;;;;;;;4.97;2.40;;;22.30;99.90;;;;;;4918655;29;20469;-71
2022/07/11 13:46:51;;;;;;;3.00;2.72;;;22.10;99.90;;;;;;4918669;29;20056;-71
2022/07/11 13:49:16;;;;;;;5.13;3.30;;;22.10;99.90;;;;;;4901739;29;20417;-71
2022/07/11 13:51:42;;;;;;;3.50;2.40;;;22.20;99.90;;;;;;4918586;29;20028;-71
2022/07/11 13:54:08;;;;;;;3.15;2.45;;;22.30;99.90;;;;;;4918455;29;20028;-71
2022/07/11 13:56:33;;;;;;;5.22;3.10;;;22.40;99.90;;;;;;4918571;29;20038;-71
2022/07/11 13:58:59;;;;;;;4.03;3.55;;;22.90;99.30;;;;;;4918388;29;20437;-71
2022/07/11 14:01:24;;;;;;;5.97;4.38;;;22.90;99.80;;;;;;4918156;29;20055;-71
2022/07/11 14:03:50;;;;;;;5.22;2.80;;;22.90;99.90;;;;;;4918098;29;20124;-71
2022/07/11 14:06:15;;;;;;;3.72;3.08;;;23.00;99.50;;;;;;4918484;29;20056;-71
2022/07/11 14:08:41;;;;;;;5.47;3.80;;;23.40;99.30;;;;;;4918156;29;20095;-71
2022/07/11 14:11:07;;;;;;;11.88;7.50;;;23.50;99.50;;;;;;4918123;29;20489;-71
2022/07/11 14:13:32;;;;;;;9.52;7.80;;;23.40;99.00;;;;;;4918229;29;20028;-71
2022/07/11 14:15:57;;;;;;;6.68;5.45;;;23.40;99.20;;;;;;4916894;29;20029;-71
2022/07/11 14:18:23;;;;;;;7.47;4.68;;;23.50;97.80;;;;;;4918180;29;20024;-71
2022/07/11 14:20:49;;;;;;;10.38;4.18;;;23.10;98.90;;;;;;4918083;29;20449;-71
2022/07/11 14:23:14;;;;;;;3.85;2.80;;;23.40;98.80;;;;;;4917952;29;20024;-71
2022/07/11 14:25:42;;;;;;;3.25;2.40;;;23.30;98.60;;;;;;4917954;29;20076;-71
2022/07/11 14:28:08;;;;;;;2.80;2.40;;;23.50;98.50;;;;;;4901010;29;20025;-71
2022/07/11 14:30:33;;;;;;;1.95;1.85;;;23.30;98.30;;;;;;4917855;29;20472;-71
2022/07/11 14:33:00;;;;;;;3.25;2.97;;;23.40;99.00;;;;;;4917837;29;20031;-71
2022/07/11 14:35:25;;;;;;;3.83;3.08;;;23.90;98.60;;;;;;4917918;29;20032;-71
2022/07/11 14:37:51;;;;;;;3.80;3.03;;;23.40;98.00;;;;;;4917798;29;20167;-71
2022/07/11 14:40:17;;;;;;;3.60;3.00;;;23.30;98.00;;;;;;4917832;29;20103;-71
2022/07/11 14:42:42;;;;;;;3.92;2.30;;;23.40;98.50;;;;;;4917528;29;20024;-71
2022/07/11 14:45:09;;;;;;;3.03;2.70;;;23.60;97.60;;;;;;4917485;29;20024;-71
2022/07/11 14:47:35;;;;;;;2.85;2.08;;;23.80;97.20;;;;;;4917711;29;20020;-72
2022/07/11 14:50:01;;;;;;;2.50;2.30;;;23.40;98.40;;;;;;4917300;29;20032;-71
2022/07/11 14:52:26;;;;;;;2.15;1.92;;;23.30;99.40;;;;;;4917472;29;20024;-72
2022/07/11 14:54:52;;;;;;;2.60;2.40;;;23.40;98.40;;;;;;4917408;29;20390;-71
2022/07/11 14:57:18;;;;;;;3.35;2.78;;;23.30;97.40;;;;;;4917390;29;20052;-72
2022/07/11 14:59:43;;;;;;;2.67;2.40;;;22.90;98.50;;;;;;4917265;29;20052;-69
2022/07/11 15:02:09;;;;;;;5.32;3.22;;;22.40;99.90;;;;;;4917155;29;20449;-70
2022/07/11 15:04:34;;;;;;;5.47;3.92;;;22.20;99.90;;;;;;4917352;29;20028;-70
2022/07/11 15:12:28;;;;;;;7.88;4.50;;;22.60;99.70;;;;;;4917292;29;20226;-70